createdAt,value
2022-10-06T00:00:57.231Z,0
2022-10-06T00:01:57.697Z,0
2022-10-06T00:02:57.396Z,0
2022-10-06T00:03:57.503Z,0
2022-10-06T00:04:57.567Z,0
2022-10-06T00:05:57.564Z,0
2022-10-06T00:06:57.310Z,0
2022-10-06T00:07:57.089Z,0
2022-10-06T00:08:57.343Z,0
2022-10-06T00:09:57.377Z,0
2022-10-06T00:10:57.664Z,0
2022-10-06T00:11:57.664Z,0
2022-10-06T00:12:57.434Z,0
2022-10-06T00:13:57.044Z,0
2022-10-06T00:14:57.202Z,0
2022-10-06T00:15:58.286Z,0
2022-10-06T00:16:57.900Z,0
2022-10-06T00:17:57.300Z,0
2022-10-06T00:18:57.548Z,0
2022-10-06T00:19:57.923Z,0
2022-10-06T00:20:57.665Z,0
2022-10-06T00:21:57.347Z,0
2022-10-06T00:22:57.887Z,0
2022-10-06T00:23:57.650Z,0
2022-10-06T00:24:57.673Z,0
2022-10-06T00:25:57.685Z,0
2022-10-06T00:26:57.971Z,0
2022-10-06T00:27:57.611Z,0
2022-10-06T00:28:57.851Z,0
2022-10-06T00:29:58.436Z,0
2022-10-06T00:30:58.122Z,0
2022-10-06T00:31:57.981Z,0
2022-10-06T00:32:58.101Z,0
2022-10-06T00:33:57.665Z,0
2022-10-06T00:34:58.126Z,0
2022-10-06T00:35:57.692Z,0
2022-10-06T00:36:57.954Z,0
2022-10-06T00:37:58.184Z,0
2022-10-06T00:38:57.963Z,0
2022-10-06T00:39:57.726Z,0
2022-10-06T00:40:58.242Z,0
2022-10-06T00:41:57.750Z,0
2022-10-06T00:42:57.521Z,0
2022-10-06T00:43:58.048Z,0
2022-10-06T00:44:57.826Z,0
2022-10-06T00:45:58.321Z,0
2022-10-06T00:46:58.367Z,0
2022-10-06T00:47:58.419Z,0
2022-10-06T00:48:58.499Z,0
2022-10-06T00:49:58.195Z,0
2022-10-06T00:50:58.451Z,0
2022-10-06T00:51:57.950Z,0
2022-10-06T00:52:58.028Z,0
2022-10-06T00:53:58.568Z,0
2022-10-06T00:54:58.015Z,0
2022-10-06T00:55:58.552Z,0
2022-10-06T00:56:58.057Z,0
2022-10-06T00:57:58.340Z,0
2022-10-06T00:58:58.352Z,0
2022-10-06T00:59:58.373Z,0
2022-10-06T01:00:58.384Z,0
2022-10-06T01:01:59.012Z,0
2022-10-06T01:02:58.474Z,0
2022-10-06T01:03:58.489Z,0
2022-10-06T01:04:58.505Z,0
2022-10-06T01:05:58.784Z,0
2022-10-06T01:06:58.000Z,0
2022-10-06T01:07:58.793Z,0
2022-10-06T01:08:58.590Z,0
2022-10-06T01:09:58.066Z,0
2022-10-06T01:10:58.067Z,0
2022-10-06T01:11:58.616Z,0
2022-10-06T01:12:58.624Z,0
2022-10-06T01:13:58.638Z,0
2022-10-06T01:14:58.936Z,0
2022-10-06T01:15:59.088Z,0
2022-10-06T01:16:58.971Z,0
2022-10-06T01:17:59.000Z,0
2022-10-06T01:18:59.026Z,0
2022-10-06T01:19:59.077Z,0
2022-10-06T01:20:59.202Z,0
2022-10-06T01:21:58.852Z,0
2022-10-06T01:22:58.829Z,0
2022-10-06T01:23:59.124Z,0
2022-10-06T01:24:59.167Z,0
2022-10-06T01:25:58.640Z,0
2022-10-06T01:26:59.166Z,0
2022-10-06T01:27:58.833Z,0
2022-10-06T01:28:59.043Z,0
2022-10-06T01:29:59.375Z,0
2022-10-06T01:30:59.404Z,0
2022-10-06T01:31:59.287Z,0
2022-10-06T01:32:59.292Z,0
2022-10-06T01:33:59.315Z,0
2022-10-06T01:34:59.321Z,0
2022-10-06T01:35:59.150Z,0
2022-10-06T01:36:59.154Z,0
2022-10-06T01:37:59.151Z,0
2022-10-06T01:38:59.166Z,0
2022-10-06T01:39:59.169Z,0
2022-10-06T01:40:59.507Z,0
2022-10-06T01:41:59.217Z,0
2022-10-06T01:42:59.239Z,0
2022-10-06T01:43:59.237Z,0
2022-10-06T01:44:59.013Z,0
2022-10-06T01:45:59.255Z,0
2022-10-06T01:46:59.820Z,0
2022-10-06T01:47:58.800Z,0
2022-10-06T01:48:59.090Z,0
2022-10-06T01:49:59.096Z,0
2022-10-06T01:50:59.139Z,0
2022-10-06T01:51:59.430Z,0
2022-10-06T01:52:59.699Z,0
2022-10-06T01:53:59.458Z,0
2022-10-06T01:54:59.472Z,0
2022-10-06T01:55:59.494Z,0
2022-10-06T01:56:59.804Z,0
2022-10-06T01:57:59.519Z,0
2022-10-06T01:58:59.274Z,0
2022-10-06T02:00:04.367Z,0
2022-10-06T02:00:59.581Z,0
2022-10-06T02:02:00.192Z,0
2022-10-06T02:02:59.615Z,0
2022-10-06T02:03:59.835Z,0
2022-10-06T02:04:59.654Z,0
2022-10-06T02:05:59.993Z,0
2022-10-06T02:06:59.954Z,0
2022-10-06T02:07:59.732Z,0
2022-10-06T02:09:00.029Z,0
2022-10-06T02:09:59.520Z,0
2022-10-06T02:10:59.776Z,0
2022-10-06T02:11:59.539Z,0
2022-10-06T02:13:00.118Z,0
2022-10-06T02:13:59.570Z,0
2022-10-06T02:15:00.107Z,0
2022-10-06T02:16:00.267Z,0
2022-10-06T02:16:59.892Z,0
2022-10-06T02:17:59.915Z,0
2022-10-06T02:18:59.685Z,0
2022-10-06T02:19:59.976Z,0
2022-10-06T02:20:59.705Z,0
2022-10-06T02:21:59.994Z,0
2022-10-06T02:23:00.020Z,0
2022-10-06T02:24:00.076Z,0
2022-10-06T02:24:59.556Z,0
2022-10-06T02:26:00.155Z,0
2022-10-06T02:26:59.837Z,0
2022-10-06T02:28:00.294Z,0
2022-10-06T02:29:00.290Z,0
2022-10-06T02:30:00.421Z,0
2022-10-06T02:31:00.528Z,0
2022-10-06T02:32:00.560Z,0
2022-10-06T02:33:00.324Z,0
2022-10-06T02:34:00.327Z,0
2022-10-06T02:35:00.095Z,0
2022-10-06T02:36:00.590Z,0
2022-10-06T02:37:00.296Z,0
2022-10-06T02:37:59.791Z,0
2022-10-06T02:39:00.594Z,0
2022-10-06T02:40:00.679Z,0
2022-10-06T02:41:00.645Z,0
2022-10-06T02:42:00.418Z,0
2022-10-06T02:43:00.403Z,0
2022-10-06T02:44:00.414Z,0
2022-10-06T02:45:00.527Z,0
2022-10-06T02:46:00.710Z,0
2022-10-06T02:47:00.855Z,0
2022-10-06T02:48:00.744Z,0
2022-10-06T02:49:00.779Z,0
2022-10-06T02:50:00.279Z,0
2022-10-06T02:51:00.363Z,0
2022-10-06T02:52:00.628Z,0
2022-10-06T02:53:00.860Z,0
2022-10-06T02:54:00.874Z,0
2022-10-06T02:55:00.887Z,0
2022-10-06T02:56:00.701Z,0
2022-10-06T02:57:00.439Z,0
2022-10-06T02:58:00.711Z,0
2022-10-06T02:59:00.535Z,0
2022-10-06T03:00:00.476Z,0
2022-10-06T03:01:00.828Z,0
2022-10-06T03:02:01.322Z,0
2022-10-06T03:03:01.548Z,0
2022-10-06T03:04:00.307Z,0
2022-10-06T03:05:00.818Z,0
2022-10-06T03:06:01.091Z,0
2022-10-06T03:07:01.123Z,0
2022-10-06T03:08:00.892Z,0
2022-10-06T03:09:00.901Z,0
2022-10-06T03:10:01.187Z,0
2022-10-06T03:11:00.696Z,0
2022-10-06T03:12:01.341Z,0
2022-10-06T03:13:01.015Z,0
2022-10-06T03:14:01.047Z,0
2022-10-06T03:15:00.795Z,0
2022-10-06T03:16:01.148Z,0
2022-10-06T03:17:01.485Z,0
2022-10-06T03:18:01.338Z,0
2022-10-06T03:19:00.841Z,0
2022-10-06T03:20:01.132Z,0
2022-10-06T03:21:00.870Z,0
2022-10-06T03:22:00.913Z,0
2022-10-06T03:23:00.902Z,0
2022-10-06T03:24:01.459Z,0
2022-10-06T03:25:01.486Z,0
2022-10-06T03:26:00.720Z,0
2022-10-06T03:27:01.087Z,0
2022-10-06T03:28:01.186Z,0
2022-10-06T03:29:01.628Z,0
2022-10-06T03:30:01.877Z,0
2022-10-06T03:31:01.719Z,0
2022-10-06T03:32:01.617Z,0
2022-10-06T03:33:01.676Z,0
2022-10-06T03:34:01.392Z,0
2022-10-06T03:35:01.842Z,0
2022-10-06T03:36:01.685Z,0
2022-10-06T03:37:01.458Z,0
2022-10-06T03:38:01.494Z,0
2022-10-06T03:39:01.788Z,0
2022-10-06T03:40:00.730Z,0
2022-10-06T03:41:01.261Z,0
2022-10-06T03:42:01.295Z,0
2022-10-06T03:43:01.575Z,0
2022-10-06T03:44:01.328Z,0
2022-10-06T03:45:01.370Z,0
2022-10-06T03:46:01.627Z,0
2022-10-06T03:47:02.374Z,0
2022-10-06T03:48:01.655Z,0
2022-10-06T03:49:01.468Z,0
2022-10-06T03:50:01.683Z,0
2022-10-06T03:51:01.716Z,0
2022-10-06T03:52:01.980Z,0
2022-10-06T03:53:01.519Z,0
2022-10-06T03:54:01.546Z,0
2022-10-06T03:55:01.814Z,0
2022-10-06T03:56:01.804Z,0
2022-10-06T03:57:01.675Z,0
2022-10-06T03:58:01.844Z,0
2022-10-06T03:59:02.140Z,0
2022-10-06T04:00:01.781Z,0
2022-10-06T04:01:02.499Z,0
2022-10-06T04:02:02.398Z,0
2022-10-06T04:03:01.939Z,0
2022-10-06T04:04:01.975Z,0
2022-10-06T04:05:02.280Z,0
2022-10-06T04:06:01.487Z,0
2022-10-06T04:07:01.796Z,0
2022-10-06T04:08:02.048Z,0
2022-10-06T04:09:02.391Z,0
2022-10-06T04:10:02.068Z,0
2022-10-06T04:11:02.373Z,0
2022-10-06T04:12:02.120Z,0
2022-10-06T04:13:01.621Z,0
2022-10-06T04:14:02.140Z,0
2022-10-06T04:15:07.254Z,0
2022-10-06T04:16:02.371Z,0
2022-10-06T04:17:02.545Z,0
2022-10-06T04:18:02.545Z,0
2022-10-06T04:19:02.249Z,0
2022-10-06T04:20:02.273Z,0
2022-10-06T04:21:02.339Z,0
2022-10-06T04:22:02.065Z,0
2022-10-06T04:23:02.330Z,0
2022-10-06T04:24:02.095Z,0
2022-10-06T04:25:02.104Z,0
2022-10-06T04:26:04.903Z,0
2022-10-06T04:27:02.664Z,0
2022-10-06T04:28:02.994Z,0
2022-10-06T04:29:02.705Z,0
2022-10-06T04:30:02.922Z,0
2022-10-06T04:31:02.766Z,0
2022-10-06T04:32:02.909Z,0
2022-10-06T04:33:02.557Z,0
2022-10-06T04:34:02.311Z,0
2022-10-06T04:35:02.927Z,0
2022-10-06T04:36:02.586Z,0
2022-10-06T04:37:02.387Z,0
2022-10-06T04:38:02.621Z,0
2022-10-06T04:39:02.912Z,0
2022-10-06T04:40:02.387Z,0
2022-10-06T04:41:02.672Z,0
2022-10-06T04:42:02.439Z,0
2022-10-06T04:43:02.813Z,0
2022-10-06T04:44:02.980Z,0
2022-10-06T04:45:02.496Z,0
2022-10-06T04:46:13.232Z,0
2022-10-06T04:47:03.072Z,0
2022-10-06T04:48:02.544Z,0
2022-10-06T04:49:03.095Z,0
2022-10-06T04:50:02.957Z,0
2022-10-06T04:51:03.019Z,0
2022-10-06T04:52:03.031Z,0
2022-10-06T04:53:03.090Z,0
2022-10-06T04:54:03.279Z,0
2022-10-06T04:55:03.032Z,0
2022-10-06T04:56:03.261Z,0
2022-10-06T04:57:03.018Z,0
2022-10-06T04:58:03.244Z,0
2022-10-06T04:59:03.032Z,0
2022-10-06T05:00:16.320Z,0
2022-10-06T05:01:03.120Z,0
2022-10-06T05:02:03.375Z,0
2022-10-06T05:03:03.106Z,0
2022-10-06T05:04:02.905Z,0
2022-10-06T05:05:03.397Z,0
2022-10-06T05:06:03.525Z,0
2022-10-06T05:07:03.153Z,0
2022-10-06T05:08:02.930Z,0
2022-10-06T05:09:03.557Z,0
2022-10-06T05:10:03.213Z,0
2022-10-06T05:11:03.238Z,0
2022-10-06T05:12:03.260Z,0
2022-10-06T05:13:03.564Z,0
2022-10-06T05:14:03.368Z,0
2022-10-06T05:15:03.570Z,0
2022-10-06T05:16:03.509Z,0
2022-10-06T05:17:03.696Z,0
2022-10-06T05:18:03.372Z,0
2022-10-06T05:19:02.940Z,0
2022-10-06T05:20:03.404Z,0
2022-10-06T05:21:09.387Z,0
2022-10-06T05:22:03.722Z,0
2022-10-06T05:23:03.207Z,0
2022-10-06T05:24:03.226Z,0
2022-10-06T05:25:03.796Z,0
2022-10-06T05:26:02.997Z,0
2022-10-06T05:27:09.197Z,0
2022-10-06T05:28:03.727Z,0
2022-10-06T05:29:03.565Z,0
2022-10-06T05:30:03.794Z,0
2022-10-06T05:31:03.607Z,0
2022-10-06T05:32:04.333Z,0
2022-10-06T05:33:03.411Z,0
2022-10-06T05:34:03.408Z,0
2022-10-06T05:35:03.984Z,0
2022-10-06T05:36:03.727Z,0
2022-10-06T05:37:03.743Z,0
2022-10-06T05:38:03.772Z,0
2022-10-06T05:39:03.007Z,0
2022-10-06T05:40:03.771Z,0
2022-10-06T05:41:03.659Z,0
2022-10-06T05:42:03.822Z,0
2022-10-06T05:43:04.095Z,0
2022-10-06T05:44:04.116Z,0
2022-10-06T05:45:03.881Z,5
2022-10-06T05:46:04.111Z,5
2022-10-06T05:47:03.650Z,5
2022-10-06T05:48:03.943Z,5
2022-10-06T05:49:04.224Z,5
2022-10-06T05:50:03.714Z,5
2022-10-06T05:51:03.767Z,5
2022-10-06T05:52:03.747Z,5
2022-10-06T05:53:04.329Z,5
2022-10-06T05:54:04.100Z,5
2022-10-06T05:55:04.107Z,5
2022-10-06T05:56:03.855Z,5
2022-10-06T05:57:04.445Z,5
2022-10-06T05:58:04.141Z,5
2022-10-06T05:59:03.942Z,10
2022-10-06T06:00:04.172Z,10
2022-10-06T06:01:04.487Z,10
2022-10-06T06:02:04.963Z,10
2022-10-06T06:03:04.603Z,10
2022-10-06T06:04:04.337Z,10
2022-10-06T06:05:04.264Z,10
2022-10-06T06:06:04.017Z,10
2022-10-06T06:07:04.071Z,15
2022-10-06T06:08:04.321Z,15
2022-10-06T06:09:04.168Z,15
2022-10-06T06:10:04.120Z,15
2022-10-06T06:11:04.650Z,15
2022-10-06T06:12:04.416Z,15
2022-10-06T06:13:04.778Z,15
2022-10-06T06:14:04.435Z,15
2022-10-06T06:15:04.704Z,15
2022-10-06T06:16:04.766Z,20
2022-10-06T06:17:05.234Z,20
2022-10-06T06:18:04.508Z,20
2022-10-06T06:19:04.532Z,20
2022-10-06T06:20:04.801Z,15
2022-10-06T06:21:04.309Z,15
2022-10-06T06:22:04.608Z,15
2022-10-06T06:23:04.394Z,20
2022-10-06T06:24:04.623Z,25
2022-10-06T06:25:04.453Z,30
2022-10-06T06:26:10.107Z,25
2022-10-06T06:27:04.829Z,30
2022-10-06T06:28:05.420Z,30
2022-10-06T06:29:05.312Z,30
2022-10-06T06:30:05.299Z,35
2022-10-06T06:31:04.996Z,35
2022-10-06T06:32:05.038Z,35
2022-10-06T06:33:04.524Z,35
2022-10-06T06:34:05.048Z,35
2022-10-06T06:35:04.571Z,35
2022-10-06T06:36:05.297Z,40
2022-10-06T06:37:17.408Z,40
2022-10-06T06:38:04.892Z,40
2022-10-06T06:39:04.931Z,40
2022-10-06T06:40:05.035Z,40
2022-10-06T06:41:04.709Z,40
2022-10-06T06:42:04.739Z,45
2022-10-06T06:43:04.722Z,40
2022-10-06T06:44:05.255Z,45
2022-10-06T06:45:05.330Z,45
2022-10-06T06:46:04.940Z,45
2022-10-06T06:47:04.809Z,45
2022-10-06T06:48:04.875Z,45
2022-10-06T06:49:04.845Z,45
2022-10-06T06:50:05.389Z,50
2022-10-06T06:51:05.396Z,50
2022-10-06T06:52:05.166Z,50
2022-10-06T06:53:05.195Z,50
2022-10-06T06:54:05.465Z,50
2022-10-06T06:55:05.454Z,50
2022-10-06T06:56:05.234Z,50
2022-10-06T06:57:05.521Z,50
2022-10-06T06:58:05.354Z,50
2022-10-06T06:59:05.031Z,50
2022-10-06T07:00:05.295Z,50
2022-10-06T07:01:05.728Z,50
2022-10-06T07:02:05.799Z,50
2022-10-06T07:03:05.361Z,50
2022-10-06T07:04:07.115Z,50
2022-10-06T07:05:05.292Z,55
2022-10-06T07:06:05.405Z,55
2022-10-06T07:07:05.944Z,55
2022-10-06T07:08:04.983Z,55
2022-10-06T07:09:04.973Z,55
2022-10-06T07:10:05.492Z,55
2022-10-06T07:11:05.799Z,55
2022-10-06T07:12:05.582Z,55
2022-10-06T07:13:05.566Z,55
2022-10-06T07:14:05.403Z,55
2022-10-06T07:15:05.503Z,55
2022-10-06T07:16:06.037Z,50
2022-10-06T07:17:05.689Z,50
2022-10-06T07:18:05.645Z,50
2022-10-06T07:19:05.911Z,50
2022-10-06T07:20:05.715Z,50
2022-10-06T07:21:05.473Z,50
2022-10-06T07:22:05.968Z,50
2022-10-06T07:23:05.983Z,50
2022-10-06T07:24:05.502Z,45
2022-10-06T07:25:06.050Z,45
2022-10-06T07:26:05.790Z,45
2022-10-06T07:27:05.585Z,45
2022-10-06T07:28:05.460Z,45
2022-10-06T07:29:05.871Z,45
2022-10-06T07:30:06.745Z,40
2022-10-06T07:31:06.278Z,40
2022-10-06T07:32:05.750Z,40
2022-10-06T07:33:06.224Z,40
2022-10-06T07:34:05.944Z,45
2022-10-06T07:35:06.587Z,40
2022-10-06T07:36:05.725Z,40
2022-10-06T07:37:11.527Z,40
2022-10-06T07:38:06.011Z,40
2022-10-06T07:39:06.048Z,40
2022-10-06T07:40:06.328Z,45
2022-10-06T07:41:36.055Z,45
2022-10-06T07:42:06.104Z,45
2022-10-06T07:43:06.127Z,45
2022-10-06T07:44:11.693Z,45
2022-10-06T07:45:05.688Z,45
2022-10-06T07:46:06.756Z,40
2022-10-06T07:47:06.182Z,45
2022-10-06T07:48:06.208Z,45
2022-10-06T07:49:06.275Z,40
2022-10-06T07:50:06.514Z,45
2022-10-06T07:51:06.305Z,45
2022-10-06T07:52:06.529Z,45
2022-10-06T07:53:06.305Z,50
2022-10-06T07:54:06.588Z,55
2022-10-06T07:55:06.469Z,55
2022-10-06T07:56:06.394Z,55
2022-10-06T07:57:06.124Z,60
2022-10-06T07:58:06.398Z,55
2022-10-06T07:59:06.459Z,60
2022-10-06T08:00:12.171Z,60
2022-10-06T08:01:06.508Z,60
2022-10-06T08:02:07.035Z,60
2022-10-06T08:03:06.626Z,60
2022-10-06T08:04:06.894Z,55
2022-10-06T08:05:06.859Z,60
2022-10-06T08:06:06.567Z,55
2022-10-06T08:07:06.842Z,55
2022-10-06T08:08:06.608Z,55
2022-10-06T08:09:06.910Z,55
2022-10-06T08:10:06.682Z,55
2022-10-06T08:11:09.565Z,55
2022-10-06T08:12:06.992Z,60
2022-10-06T08:13:06.950Z,55
2022-10-06T08:14:06.719Z,55
2022-10-06T08:15:12.942Z,60
2022-10-06T08:16:06.835Z,60
2022-10-06T08:17:07.033Z,60
2022-10-06T08:19:07.083Z,60
2022-10-06T08:20:06.641Z,60
2022-10-06T08:21:06.965Z,60
2022-10-06T08:22:12.371Z,55
2022-10-06T08:23:07.164Z,55
2022-10-06T08:24:06.676Z,60
2022-10-06T08:25:15.987Z,60
2022-10-06T08:26:06.701Z,60
2022-10-06T08:27:06.991Z,60
2022-10-06T08:28:07.385Z,55
2022-10-06T08:29:07.172Z,55
2022-10-06T08:30:07.124Z,55
2022-10-06T08:31:06.877Z,55
2022-10-06T08:32:07.385Z,55
2022-10-06T08:33:07.338Z,60
2022-10-06T08:34:12.465Z,60
2022-10-06T08:35:07.457Z,60
2022-10-06T08:36:07.129Z,60
2022-10-06T08:37:29.035Z,60
2022-10-06T08:38:07.436Z,60
2022-10-06T08:39:07.208Z,60
2022-10-06T08:40:07.237Z,60
2022-10-06T08:41:06.977Z,60
2022-10-06T08:42:07.341Z,55
2022-10-06T08:43:07.683Z,60
2022-10-06T08:44:07.276Z,60
2022-10-06T08:45:07.043Z,60
2022-10-06T08:46:07.477Z,45
2022-10-06T08:47:07.450Z,60
2022-10-06T08:48:07.174Z,60
2022-10-06T08:49:07.449Z,60
2022-10-06T08:50:08.389Z,60
2022-10-06T08:51:07.680Z,60
2022-10-06T08:52:07.299Z,50
2022-10-06T08:53:07.776Z,60
2022-10-06T08:54:07.232Z,60
2022-10-06T08:55:07.757Z,40
2022-10-06T08:56:07.777Z,60
2022-10-06T08:57:07.801Z,60
2022-10-06T08:58:07.597Z,35
2022-10-06T08:59:07.588Z,60
2022-10-06T09:00:08.318Z,60
2022-10-06T09:01:07.403Z,60
2022-10-06T09:02:07.948Z,70
2022-10-06T09:03:07.420Z,60
2022-10-06T09:04:07.955Z,60
2022-10-06T09:05:07.725Z,55
2022-10-06T09:06:07.488Z,60
2022-10-06T09:07:14.111Z,40
2022-10-06T09:08:07.766Z,60
2022-10-06T09:09:08.087Z,60
2022-10-06T09:10:08.106Z,65
2022-10-06T09:11:08.080Z,60
2022-10-06T09:12:08.208Z,65
2022-10-06T09:13:07.855Z,75
2022-10-06T09:14:07.864Z,60
2022-10-06T09:15:07.895Z,55
2022-10-06T09:16:07.994Z,60
2022-10-06T09:17:07.931Z,65
2022-10-06T09:18:07.965Z,60
2022-10-06T09:19:24.659Z,60
2022-10-06T09:20:08.433Z,60
2022-10-06T09:21:08.258Z,45
2022-10-06T09:22:08.181Z,60
2022-10-06T09:23:07.295Z,70
2022-10-06T09:24:07.818Z,65
2022-10-06T09:25:07.876Z,60
2022-10-06T09:26:08.107Z,60
2022-10-06T09:27:07.868Z,60
2022-10-06T09:28:08.080Z,55
2022-10-06T09:29:07.397Z,75
2022-10-06T09:30:08.913Z,70
2022-10-06T09:31:08.727Z,65
2022-10-06T09:32:08.478Z,40
2022-10-06T09:33:08.237Z,60
2022-10-06T09:34:08.527Z,65
2022-10-06T09:35:08.064Z,60
2022-10-06T09:36:08.299Z,60
2022-10-06T09:37:10.723Z,65
2022-10-06T09:38:14.779Z,80
2022-10-06T09:39:08.361Z,75
2022-10-06T09:40:09.000Z,70
2022-10-06T09:41:08.874Z,90
2022-10-06T09:42:08.526Z,95
2022-10-06T09:43:08.425Z,85
2022-10-06T09:44:08.474Z,70
2022-10-06T09:45:08.475Z,70
2022-10-06T09:47:08.780Z,100
2022-10-06T09:48:08.571Z,105
2022-10-06T09:49:08.056Z,80
2022-10-06T09:50:08.586Z,75
2022-10-06T09:51:08.904Z,80
2022-10-06T09:52:08.713Z,80
2022-10-06T09:53:08.640Z,65
2022-10-06T09:54:08.438Z,60
2022-10-06T09:55:08.436Z,45
2022-10-06T09:56:08.983Z,50
2022-10-06T09:57:08.999Z,55
2022-10-06T09:58:08.994Z,55
2022-10-06T09:59:09.024Z,65
2022-10-06T10:00:08.407Z,70
2022-10-06T10:01:09.316Z,65
2022-10-06T10:02:09.076Z,55
2022-10-06T10:03:09.125Z,55
2022-10-06T10:04:28.810Z,50
2022-10-06T10:05:08.891Z,45
2022-10-06T10:06:08.384Z,60
2022-10-06T10:07:09.218Z,65
2022-10-06T10:08:09.113Z,70
2022-10-06T10:09:08.986Z,50
2022-10-06T10:10:09.469Z,50
2022-10-06T10:11:09.265Z,45
2022-10-06T10:12:09.365Z,40
2022-10-06T10:13:08.810Z,40
2022-10-06T10:14:09.330Z,40
2022-10-06T10:15:09.357Z,50
2022-10-06T10:16:09.519Z,65
2022-10-06T10:17:09.119Z,50
2022-10-06T10:18:09.166Z,45
2022-10-06T10:19:08.895Z,45
2022-10-06T10:20:09.835Z,45
2022-10-06T10:21:08.948Z,50
2022-10-06T10:22:09.778Z,50
2022-10-06T10:23:09.548Z,55
2022-10-06T10:24:09.507Z,45
2022-10-06T10:25:09.057Z,45
2022-10-06T10:26:09.307Z,45
2022-10-06T10:27:09.309Z,40
2022-10-06T10:28:09.973Z,40
2022-10-06T10:29:09.638Z,40
2022-10-06T10:30:09.986Z,50
2022-10-06T10:31:09.555Z,45
2022-10-06T10:32:09.713Z,45
2022-10-06T10:33:09.289Z,45
2022-10-06T10:34:31.929Z,55
2022-10-06T10:35:10.219Z,55
2022-10-06T10:36:09.746Z,55
2022-10-06T10:37:08.999Z,55
2022-10-06T10:38:16.292Z,60
2022-10-06T10:39:09.580Z,50
2022-10-06T10:40:09.323Z,55
2022-10-06T10:41:09.622Z,50
2022-10-06T10:42:09.646Z,50
2022-10-06T10:43:09.649Z,50
2022-10-06T10:44:13.748Z,50
2022-10-06T10:45:09.908Z,60
2022-10-06T10:46:09.476Z,65
2022-10-06T10:47:10.326Z,80
2022-10-06T10:48:09.908Z,70
2022-10-06T10:49:09.584Z,85
2022-10-06T10:50:09.837Z,100
2022-10-06T10:51:09.614Z,100
2022-10-06T10:52:10.185Z,95
2022-10-06T10:53:09.755Z,85
2022-10-06T10:54:09.872Z,65
2022-10-06T10:55:09.897Z,65
2022-10-06T10:56:09.645Z,75
2022-10-06T10:57:09.655Z,60
2022-10-06T10:58:09.948Z,55
2022-10-06T10:59:09.990Z,50
2022-10-06T11:00:10.313Z,70
2022-10-06T11:01:10.314Z,80
2022-10-06T11:02:10.566Z,65
2022-10-06T11:03:10.283Z,60
2022-10-06T11:04:10.072Z,55
2022-10-06T11:05:10.822Z,55
2022-10-06T11:06:10.351Z,50
2022-10-06T11:07:09.914Z,50
2022-10-06T11:08:09.619Z,50
2022-10-06T11:09:10.160Z,60
2022-10-06T11:10:09.952Z,65
2022-10-06T11:11:09.956Z,55
2022-10-06T11:12:10.209Z,50
2022-10-06T11:13:10.212Z,50
2022-10-06T11:14:10.537Z,50
2022-10-06T11:15:10.757Z,50
2022-10-06T11:16:10.630Z,50
2022-10-06T11:17:10.303Z,45
2022-10-06T11:18:10.329Z,45
2022-10-06T11:19:10.357Z,50
2022-10-06T11:20:09.855Z,50
2022-10-06T11:21:09.902Z,45
2022-10-06T11:22:10.407Z,50
2022-10-06T11:23:10.681Z,50
2022-10-06T11:24:10.450Z,50
2022-10-06T11:25:12.324Z,50
2022-10-06T11:26:10.745Z,50
2022-10-06T11:27:10.775Z,60
2022-10-06T11:28:10.867Z,75
2022-10-06T11:29:10.806Z,80
2022-10-06T11:30:11.381Z,80
2022-10-06T11:31:10.381Z,80
2022-10-06T11:32:10.817Z,80
2022-10-06T11:33:10.640Z,100
2022-10-06T11:34:10.398Z,95
2022-10-06T11:35:10.675Z,85
2022-10-06T11:36:10.699Z,80
2022-10-06T11:37:11.075Z,75
2022-10-06T11:38:10.466Z,70
2022-10-06T11:39:10.994Z,70
2022-10-06T11:40:11.597Z,65
2022-10-06T11:41:16.871Z,60
2022-10-06T11:42:10.802Z,65
2022-10-06T11:43:11.122Z,75
2022-10-06T11:44:11.094Z,80
2022-10-06T11:45:10.929Z,80
2022-10-06T11:46:11.608Z,85
2022-10-06T11:47:11.170Z,85
2022-10-06T11:48:10.993Z,85
2022-10-06T11:49:10.962Z,90
2022-10-06T11:50:11.263Z,85
2022-10-06T11:51:11.369Z,80
2022-10-06T11:52:15.840Z,70
2022-10-06T11:53:11.292Z,65
2022-10-06T11:54:10.780Z,55
2022-10-06T11:55:11.862Z,55
2022-10-06T11:56:10.621Z,55
2022-10-06T11:57:11.167Z,55
2022-10-06T11:58:47.987Z,55
2022-10-06T11:59:10.900Z,55
2022-10-06T12:00:11.007Z,55
2022-10-06T12:01:11.064Z,55
2022-10-06T12:02:12.386Z,55
2022-10-06T12:03:12.138Z,55
2022-10-06T12:04:11.452Z,55
2022-10-06T12:05:58.924Z,55
2022-10-06T12:06:11.312Z,55
2022-10-06T12:07:11.316Z,55
2022-10-06T12:08:11.349Z,55
2022-10-06T12:09:11.374Z,60
2022-10-06T12:10:11.406Z,60
2022-10-06T12:11:11.661Z,55
2022-10-06T12:12:11.160Z,55
2022-10-06T12:17:15.527Z,55
2022-10-06T12:17:29.326Z,55
2022-10-06T12:18:28.159Z,55
2022-10-06T12:19:28.238Z,60
2022-10-06T12:20:28.482Z,65
2022-10-06T12:21:28.219Z,70
2022-10-06T12:22:27.983Z,75
2022-10-06T12:23:28.522Z,80
2022-10-06T12:24:28.377Z,75
2022-10-06T12:25:28.116Z,60
2022-10-06T12:26:28.324Z,55
2022-10-06T12:27:33.473Z,55
2022-10-06T12:28:28.925Z,55
2022-10-06T12:29:28.380Z,55
2022-10-06T12:30:28.012Z,55
2022-10-06T12:31:28.806Z,55
2022-10-06T12:32:28.670Z,55
2022-10-06T12:33:28.806Z,55
2022-10-06T12:34:28.485Z,55
2022-10-06T12:35:28.557Z,55
2022-10-06T12:36:28.011Z,55
2022-10-06T12:37:28.286Z,55
2022-10-06T12:38:28.838Z,55
2022-10-06T12:39:28.352Z,50
2022-10-06T12:40:28.886Z,55
2022-10-06T12:41:28.647Z,55
2022-10-06T12:42:28.651Z,55
2022-10-06T12:43:28.442Z,55
2022-10-06T12:44:28.429Z,55
2022-10-06T12:45:28.447Z,55
2022-10-06T12:46:29.109Z,55
2022-10-06T12:47:28.240Z,55
2022-10-06T12:48:28.542Z,55
2022-10-06T12:49:28.953Z,55
2022-10-06T12:50:28.815Z,55
2022-10-06T12:51:29.298Z,55
2022-10-06T12:52:28.601Z,55
2022-10-06T12:53:28.875Z,55
2022-10-06T12:54:28.827Z,55
2022-10-06T12:55:28.918Z,55
2022-10-06T12:56:28.922Z,55
2022-10-06T12:57:28.946Z,60
2022-10-06T12:58:28.733Z,65
2022-10-06T12:59:28.749Z,60
2022-10-06T13:00:29.206Z,55
2022-10-06T13:01:29.548Z,55
2022-10-06T13:02:29.177Z,55
2022-10-06T13:03:28.601Z,55
2022-10-06T13:04:28.861Z,55
2022-10-06T13:05:29.252Z,55
2022-10-06T13:06:28.879Z,55
2022-10-06T13:07:29.492Z,55
2022-10-06T13:08:29.447Z,55
2022-10-06T13:09:29.218Z,55
2022-10-06T13:10:28.713Z,55
2022-10-06T13:11:29.515Z,55
2022-10-06T13:12:29.008Z,55
2022-10-06T13:13:29.355Z,55
2022-10-06T13:14:29.039Z,55
2022-10-06T13:15:29.926Z,55
2022-10-06T13:16:29.133Z,55
2022-10-06T13:17:29.368Z,55
2022-10-06T13:18:29.645Z,55
2022-10-06T13:19:29.141Z,55
2022-10-06T13:20:29.321Z,55
2022-10-06T13:21:29.490Z,55
2022-10-06T13:22:29.201Z,55
2022-10-06T13:23:29.549Z,55
2022-10-06T13:24:29.510Z,55
2022-10-06T13:25:29.273Z,55
2022-10-06T13:26:29.550Z,55
2022-10-06T13:27:29.049Z,55
2022-10-06T13:28:29.754Z,55
2022-10-06T13:29:29.365Z,55
2022-10-06T13:30:31.082Z,60
2022-10-06T13:31:29.707Z,60
2022-10-06T13:32:29.552Z,55
2022-10-06T13:33:29.722Z,55
2022-10-06T13:34:29.731Z,55
2022-10-06T13:35:29.848Z,55
2022-10-06T13:36:29.793Z,55
2022-10-06T13:37:30.087Z,55
2022-10-06T13:38:30.069Z,50
2022-10-06T13:39:29.619Z,50
2022-10-06T13:40:53.184Z,50
2022-10-06T13:41:29.875Z,50
2022-10-06T13:42:29.886Z,50
2022-10-06T13:43:30.172Z,50
2022-10-06T13:44:29.924Z,50
2022-10-06T13:45:29.723Z,50
2022-10-06T13:46:30.280Z,50
2022-10-06T13:47:30.240Z,50
2022-10-06T13:48:30.270Z,50
2022-10-06T13:49:30.281Z,45
2022-10-06T13:50:30.319Z,45
2022-10-06T13:51:30.340Z,45
2022-10-06T13:52:30.123Z,45
2022-10-06T13:53:30.440Z,45
2022-10-06T13:54:30.151Z,45
2022-10-06T13:55:30.553Z,45
2022-10-06T13:57:30.468Z,45
2022-10-06T13:58:30.231Z,40
2022-10-06T13:59:29.986Z,40
2022-10-06T14:00:29.999Z,40
2022-10-06T14:01:30.721Z,40
2022-10-06T14:02:30.827Z,40
2022-10-06T14:03:30.591Z,40
2022-10-06T14:04:30.091Z,40
2022-10-06T14:05:30.423Z,40
2022-10-06T14:06:29.623Z,40
2022-10-06T14:07:30.419Z,40
2022-10-06T14:08:30.470Z,40
2022-10-06T14:09:30.528Z,40
2022-10-06T14:10:30.437Z,40
2022-10-06T14:11:30.302Z,40
2022-10-06T14:12:30.527Z,40
2022-10-06T14:13:30.551Z,40
2022-10-06T14:14:30.567Z,40
2022-10-06T14:15:30.848Z,40
2022-10-06T14:16:30.992Z,40
2022-10-06T14:17:30.885Z,40
2022-10-06T14:18:30.646Z,40
2022-10-06T14:19:30.414Z,40
2022-10-06T14:20:30.425Z,40
2022-10-06T14:21:30.965Z,40
2022-10-06T14:22:30.738Z,40
2022-10-06T14:23:30.503Z,40
2022-10-06T14:24:30.832Z,40
2022-10-06T14:25:31.089Z,40
2022-10-06T14:26:30.805Z,40
2022-10-06T14:27:31.162Z,40
2022-10-06T14:28:30.970Z,40
2022-10-06T14:29:30.610Z,40
2022-10-06T14:30:30.891Z,40
2022-10-06T14:31:31.614Z,40
2022-10-06T14:32:31.131Z,40
2022-10-06T14:33:30.943Z,40
2022-10-06T14:34:30.970Z,40
2022-10-06T14:35:30.753Z,40